Lochgelly, United Kingdom

9:30 AM BST on September 16, 2014 (GMT +0100)
Northern Lochgelly | Change Station
CLOSE
Current Station
Personal Weather Station
Location: Lochgelly, Fife
Elevation: 423 ft
Nearby Weather Stations

Elev 423 ft 56.13 °N, 3.32 °W | Updated 23 seconds ago

Mostly Cloudy
Mostly Cloudy
56.1 °F
Feels Like 56.1 °F
N
2.0
Wind Variable Wind from SSE
Gusts 9.0 mph

Today
High -- | Low -- °F
--% Chance of Precip.
Yesterday
High -- | Low -- °F
Precip. -- in
6:46 AM 7:28 PM
Waning Gibbous, 47% visible
Pressure 30.04 in
Visibility 6.2 miles
Clouds Few 1600 ft
Mostly Cloudy 4400 ft
Dew Point 56 °F
Humidity 99%
Rainfall 0.02 in
Snow Depth Not available.
UV 1 out of 12
Pollen Not available.
Air Quality Not available.
Flu Activity Not available.
METAR EGPH 160820Z 09005KT 050V120 9999 FEW016 BKN044 15/14 Q1017

More Conditions Fewer Conditions

Pressure 30.04 in
Visibility 6.2 miles
Clouds Few 1600 ft
Mostly Cloudy 4400 ft
Dew Point 56 °F
Humidity 99%
Rainfall 0.02 in
Snow Depth Not available.
UV 1 out of 12
Pollen Not available.
Air Quality Not available.
Flu Activity Not available.
METAR EGPH 160820Z 09005KT 050V120 9999 FEW016 BKN044 15/14 Q1017

More Conditions Fewer Conditions

10-Day Weather Forecast

Almanac

Astronomy

Sep. 16, 2014 Rise Set
Actual Time 6:46 AM BST 7:28 PM BST
Civil Twilight 6:08 AM BST 8:06 PM BST
Nautical Twilight 5:23 AM BST 8:51 PM BST
Astronomical Twilight 4:33 AM BST 9:40 PM BST
Moon 11:48 PM BST 3:28 PM BST
Length of Visible Light 13h 57m
Length of Day
12h 42m
Tomorrow will be 4m 38s shorter.
Waning Gibbous, 47% of the Moon is Illuminated
Today
Waning Gibbous
Sep 24
New
Oct 1
First Quarter
Oct 8
Full
Oct 15
Last Quarter

Yesterday's Extremes

Country Highs Country Lows

Community

WunderPhotos

Upload Photos

1,753,712 photos uploaded!

Nearby

Snow Depth

Not available.

Earthquake Activity

City Distance Mag. Time & Date
No recent earthquake activity has been reported nearby.
Minimum magnitude displayed is 2.5.

Coastal Water Temperatures

Place Temperature
No Stations Reporting

Nearby Weather Stations